sensor_id;sensor_type;location;lat;lon;timestamp;P1;durP1;ratioP1;P2;durP2;ratioP2
78365;SDS011;67641;59.864;30.464;2024-03-08T00:00:17;6.55;;;2.72;;
78365;SDS011;67641;59.864;30.464;2024-03-08T00:02:47;6.68;;;2.47;;
78365;SDS011;67641;59.864;30.464;2024-03-08T00:05:16;6.90;;;2.70;;
78365;SDS011;67641;59.864;30.464;2024-03-08T00:07:44;7.32;;;2.78;;
78365;SDS011;67641;59.864;30.464;2024-03-08T00:10:11;4.80;;;2.70;;
78365;SDS011;67641;59.864;30.464;2024-03-08T00:12:43;7.57;;;2.83;;
78365;SDS011;67641;59.864;30.464;2024-03-08T00:15:11;5.75;;;2.97;;
78365;SDS011;67641;59.864;30.464;2024-03-08T00:17:41;4.97;;;2.58;;
78365;SDS011;67641;59.864;30.464;2024-03-08T00:20:09;6.10;;;2.90;;
78365;SDS011;67641;59.864;30.464;2024-03-08T00:22:36;6.13;;;2.88;;
78365;SDS011;67641;59.864;30.464;2024-03-08T00:25:04;6.28;;;2.80;;
78365;SDS011;67641;59.864;30.464;2024-03-08T00:27:32;6.03;;;3.00;;
78365;SDS011;67641;59.864;30.464;2024-03-08T00:29:58;4.93;;;2.80;;
78365;SDS011;67641;59.864;30.464;2024-03-08T00:32:25;7.10;;;2.75;;
78365;SDS011;67641;59.864;30.464;2024-03-08T00:34:53;5.95;;;2.60;;
78365;SDS011;67641;59.864;30.464;2024-03-08T00:37:20;7.75;;;2.70;;
78365;SDS011;67641;59.864;30.464;2024-03-08T00:39:48;4.43;;;2.72;;
78365;SDS011;67641;59.864;30.464;2024-03-08T00:42:18;6.93;;;2.60;;
78365;SDS011;67641;59.864;30.464;2024-03-08T00:44:46;6.00;;;2.72;;
78365;SDS011;67641;59.864;30.464;2024-03-08T00:47:14;5.60;;;2.80;;
78365;SDS011;67641;59.864;30.464;2024-03-08T00:49:41;6.75;;;2.90;;
78365;SDS011;67641;59.864;30.464;2024-03-08T00:52:08;6.03;;;2.65;;
78365;SDS011;67641;59.864;30.464;2024-03-08T00:54:35;5.70;;;2.78;;
78365;SDS011;67641;59.864;30.464;2024-03-08T00:57:04;8.48;;;3.05;;
78365;SDS011;67641;59.864;30.464;2024-03-08T00:59:32;7.82;;;2.70;;
78365;SDS011;67641;59.864;30.464;2024-03-08T01:01:59;3.88;;;2.35;;
78365;SDS011;67641;59.864;30.464;2024-03-08T01:04:26;7.68;;;3.08;;
78365;SDS011;67641;59.864;30.464;2024-03-08T01:06:55;5.63;;;2.50;;
78365;SDS011;67641;59.864;30.464;2024-03-08T01:09:25;4.75;;;2.38;;
78365;SDS011;67641;59.864;30.464;2024-03-08T01:11:53;6.63;;;2.88;;
78365;SDS011;67641;59.864;30.464;2024-03-08T01:14:21;5.88;;;2.78;;
78365;SDS011;67641;59.864;30.464;2024-03-08T01:16:51;4.03;;;2.60;;
78365;SDS011;67641;59.864;30.464;2024-03-08T01:19:18;4.18;;;2.55;;
78365;SDS011;67641;59.864;30.464;2024-03-08T01:21:45;4.65;;;2.60;;
78365;SDS011;67641;59.864;30.464;2024-03-08T01:24:12;5.40;;;2.38;;
78365;SDS011;67641;59.864;30.464;2024-03-08T01:26:39;5.97;;;2.78;;
78365;SDS011;67641;59.864;30.464;2024-03-08T01:29:05;6.13;;;2.45;;
78365;SDS011;67641;59.864;30.464;2024-03-08T01:31:32;5.10;;;2.38;;
78365;SDS011;67641;59.864;30.464;2024-03-08T01:33:59;8.18;;;2.60;;
78365;SDS011;67641;59.864;30.464;2024-03-08T01:36:26;4.45;;;2.60;;
78365;SDS011;67641;59.864;30.464;2024-03-08T01:38:52;4.38;;;2.10;;
78365;SDS011;67641;59.864;30.464;2024-03-08T01:41:19;6.00;;;2.53;;
78365;SDS011;67641;59.864;30.464;2024-03-08T01:43:46;5.75;;;2.00;;
78365;SDS011;67641;59.864;30.464;2024-03-08T01:46:13;6.88;;;2.40;;
78365;SDS011;67641;59.864;30.464;2024-03-08T01:48:43;7.18;;;2.78;;
78365;SDS011;67641;59.864;30.464;2024-03-08T01:51:11;8.02;;;2.30;;
78365;SDS011;67641;59.864;30.464;2024-03-08T01:53:40;9.00;;;2.50;;
78365;SDS011;67641;59.864;30.464;2024-03-08T01:56:11;5.70;;;2.30;;
78365;SDS011;67641;59.864;30.464;2024-03-08T01:58:40;6.65;;;2.88;;
78365;SDS011;67641;59.864;30.464;2024-03-08T02:01:13;6.28;;;2.70;;
78365;SDS011;67641;59.864;30.464;2024-03-08T02:03:41;4.82;;;2.58;;
78365;SDS011;67641;59.864;30.464;2024-03-08T02:06:12;5.05;;;2.40;;
78365;SDS011;67641;59.864;30.464;2024-03-08T02:08:41;5.07;;;2.28;;
78365;SDS011;67641;59.864;30.464;2024-03-08T02:11:12;4.10;;;2.17;;
78365;SDS011;67641;59.864;30.464;2024-03-08T02:13:39;5.97;;;2.50;;
78365;SDS011;67641;59.864;30.464;2024-03-08T02:16:05;6.85;;;2.30;;
78365;SDS011;67641;59.864;30.464;2024-03-08T02:18:34;5.03;;;2.22;;
78365;SDS011;67641;59.864;30.464;2024-03-08T02:21:01;5.80;;;2.45;;
78365;SDS011;67641;59.864;30.464;2024-03-08T02:23:29;4.35;;;2.40;;
78365;SDS011;67641;59.864;30.464;2024-03-08T02:25:56;8.45;;;2.70;;
78365;SDS011;67641;59.864;30.464;2024-03-08T02:28:23;6.43;;;2.58;;
78365;SDS011;67641;59.864;30.464;2024-03-08T02:30:54;4.95;;;2.47;;
78365;SDS011;67641;59.864;30.464;2024-03-08T02:33:22;7.93;;;3.08;;
78365;SDS011;67641;59.864;30.464;2024-03-08T02:35:49;6.18;;;2.53;;
78365;SDS011;67641;59.864;30.464;2024-03-08T02:38:18;5.22;;;2.50;;
78365;SDS011;67641;59.864;30.464;2024-03-08T02:40:46;7.85;;;2.78;;
78365;SDS011;67641;59.864;30.464;2024-03-08T02:43:13;6.63;;;3.00;;
78365;SDS011;67641;59.864;30.464;2024-03-08T02:45:41;5.60;;;2.75;;
78365;SDS011;67641;59.864;30.464;2024-03-08T02:48:08;4.93;;;2.55;;
78365;SDS011;67641;59.864;30.464;2024-03-08T02:50:34;4.05;;;2.45;;
78365;SDS011;67641;59.864;30.464;2024-03-08T02:53:02;6.90;;;2.40;;
78365;SDS011;67641;59.864;30.464;2024-03-08T02:55:32;6.20;;;2.80;;
78365;SDS011;67641;59.864;30.464;2024-03-08T02:58:02;3.92;;;2.72;;
78365;SDS011;67641;59.864;30.464;2024-03-08T03:00:29;7.68;;;2.67;;
78365;SDS011;67641;59.864;30.464;2024-03-08T03:03:00;5.88;;;2.83;;
78365;SDS011;67641;59.864;30.464;2024-03-08T03:05:29;6.90;;;2.60;;
78365;SDS011;67641;59.864;30.464;2024-03-08T03:07:56;7.93;;;2.83;;
78365;SDS011;67641;59.864;30.464;2024-03-08T03:10:24;6.38;;;2.05;;
78365;SDS011;67641;59.864;30.464;2024-03-08T03:12:50;3.50;;;2.03;;
78365;SDS011;67641;59.864;30.464;2024-03-08T03:15:17;4.90;;;2.33;;
78365;SDS011;67641;59.864;30.464;2024-03-08T03:17:50;4.30;;;2.47;;
78365;SDS011;67641;59.864;30.464;2024-03-08T03:20:17;4.68;;;2.10;;
78365;SDS011;67641;59.864;30.464;2024-03-08T03:22:58;3.80;;;2.15;;
78365;SDS011;67641;59.864;30.464;2024-03-08T03:25:27;4.38;;;2.40;;
78365;SDS011;67641;59.864;30.464;2024-03-08T03:28:01;4.68;;;2.55;;
78365;SDS011;67641;59.864;30.464;2024-03-08T03:30:30;4.45;;;2.10;;
78365;SDS011;67641;59.864;30.464;2024-03-08T03:32:59;4.60;;;2.40;;
78365;SDS011;67641;59.864;30.464;2024-03-08T03:35:32;4.30;;;2.25;;
78365;SDS011;67641;59.864;30.464;2024-03-08T03:38:00;4.63;;;2.30;;
78365;SDS011;67641;59.864;30.464;2024-03-08T03:40:38;6.15;;;2.95;;
78365;SDS011;67641;59.864;30.464;2024-03-08T03:43:07;3.95;;;2.10;;
78365;SDS011;67641;59.864;30.464;2024-03-08T03:45:35;6.82;;;2.45;;
78365;SDS011;67641;59.864;30.464;2024-03-08T03:48:03;5.80;;;2.42;;
78365;SDS011;67641;59.864;30.464;2024-03-08T03:50:30;9.20;;;3.50;;
78365;SDS011;67641;59.864;30.464;2024-03-08T03:52:56;7.25;;;2.92;;
78365;SDS011;67641;59.864;30.464;2024-03-08T03:55:24;5.00;;;2.85;;
78365;SDS011;67641;59.864;30.464;2024-03-08T03:57:50;8.65;;;3.72;;
78365;SDS011;67641;59.864;30.464;2024-03-08T04:00:18;6.28;;;3.45;;
78365;SDS011;67641;59.864;30.464;2024-03-08T04:02:44;7.53;;;3.00;;
78365;SDS011;67641;59.864;30.464;2024-03-08T04:05:12;5.63;;;3.15;;
78365;SDS011;67641;59.864;30.464;2024-03-08T04:07:39;9.25;;;2.72;;
78365;SDS011;67641;59.864;30.464;2024-03-08T04:10:06;8.20;;;2.88;;
78365;SDS011;67641;59.864;30.464;2024-03-08T04:12:34;8.05;;;3.10;;
78365;SDS011;67641;59.864;30.464;2024-03-08T04:15:01;7.32;;;2.92;;
78365;SDS011;67641;59.864;30.464;2024-03-08T04:17:28;7.07;;;3.13;;
78365;SDS011;67641;59.864;30.464;2024-03-08T04:19:54;6.28;;;2.97;;
78365;SDS011;67641;59.864;30.464;2024-03-08T04:22:21;10.38;;;4.00;;
78365;SDS011;67641;59.864;30.464;2024-03-08T04:24:48;5.15;;;2.85;;
78365;SDS011;67641;59.864;30.464;2024-03-08T04:27:15;9.45;;;2.95;;
78365;SDS011;67641;59.864;30.464;2024-03-08T04:29:41;6.10;;;2.67;;
78365;SDS011;67641;59.864;30.464;2024-03-08T04:32:10;7.82;;;3.40;;
78365;SDS011;67641;59.864;30.464;2024-03-08T04:34:37;7.90;;;3.15;;
78365;SDS011;67641;59.864;30.464;2024-03-08T04:37:04;9.02;;;3.90;;
78365;SDS011;67641;59.864;30.464;2024-03-08T04:39:31;7.78;;;3.38;;
78365;SDS011;67641;59.864;30.464;2024-03-08T04:41:59;8.60;;;3.72;;
78365;SDS011;67641;59.864;30.464;2024-03-08T04:44:29;8.57;;;4.00;;
78365;SDS011;67641;59.864;30.464;2024-03-08T04:46:57;6.72;;;3.47;;
78365;SDS011;67641;59.864;30.464;2024-03-08T04:49:24;14.77;;;4.78;;
78365;SDS011;67641;59.864;30.464;2024-03-08T04:51:51;7.53;;;4.18;;
78365;SDS011;67641;59.864;30.464;2024-03-08T04:54:17;9.85;;;3.65;;
78365;SDS011;67641;59.864;30.464;2024-03-08T04:56:46;11.07;;;4.18;;
78365;SDS011;67641;59.864;30.464;2024-03-08T04:59:12;8.70;;;3.78;;
78365;SDS011;67641;59.864;30.464;2024-03-08T05:01:39;8.15;;;4.25;;
78365;SDS011;67641;59.864;30.464;2024-03-08T05:04:06;12.60;;;4.60;;
78365;SDS011;67641;59.864;30.464;2024-03-08T05:06:33;16.95;;;5.53;;
78365;SDS011;67641;59.864;30.464;2024-03-08T05:08:59;15.32;;;5.78;;
78365;SDS011;67641;59.864;30.464;2024-03-08T05:11:26;12.30;;;5.43;;
78365;SDS011;67641;59.864;30.464;2024-03-08T05:13:52;10.40;;;4.40;;
78365;SDS011;67641;59.864;30.464;2024-03-08T05:16:19;12.85;;;4.63;;
78365;SDS011;67641;59.864;30.464;2024-03-08T05:18:48;14.80;;;5.00;;
78365;SDS011;67641;59.864;30.464;2024-03-08T05:21:15;11.02;;;4.72;;
78365;SDS011;67641;59.864;30.464;2024-03-08T05:23:43;10.30;;;4.47;;
78365;SDS011;67641;59.864;30.464;2024-03-08T05:26:10;8.75;;;4.47;;
78365;SDS011;67641;59.864;30.464;2024-03-08T05:28:36;10.02;;;4.20;;
78365;SDS011;67641;59.864;30.464;2024-03-08T05:31:03;12.23;;;4.50;;
78365;SDS011;67641;59.864;30.464;2024-03-08T05:33:29;15.93;;;4.32;;
78365;SDS011;67641;59.864;30.464;2024-03-08T05:35:57;10.95;;;4.38;;
78365;SDS011;67641;59.864;30.464;2024-03-08T05:38:25;9.15;;;3.88;;
78365;SDS011;67641;59.864;30.464;2024-03-08T05:40:51;14.68;;;4.53;;
78365;SDS011;67641;59.864;30.464;2024-03-08T05:43:18;10.52;;;4.22;;
78365;SDS011;67641;59.864;30.464;2024-03-08T05:45:46;8.38;;;3.85;;
78365;SDS011;67641;59.864;30.464;2024-03-08T05:48:13;9.32;;;3.90;;
78365;SDS011;67641;59.864;30.464;2024-03-08T05:50:40;9.93;;;4.10;;
78365;SDS011;67641;59.864;30.464;2024-03-08T05:53:06;12.93;;;4.07;;
78365;SDS011;67641;59.864;30.464;2024-03-08T05:55:33;7.72;;;3.72;;
78365;SDS011;67641;59.864;30.464;2024-03-08T05:58:02;8.73;;;3.50;;
78365;SDS011;67641;59.864;30.464;2024-03-08T06:00:29;7.60;;;3.30;;
78365;SDS011;67641;59.864;30.464;2024-03-08T06:02:57;10.05;;;3.40;;
78365;SDS011;67641;59.864;30.464;2024-03-08T06:05:24;9.93;;;3.65;;
78365;SDS011;67641;59.864;30.464;2024-03-08T06:07:51;12.57;;;4.40;;
78365;SDS011;67641;59.864;30.464;2024-03-08T06:10:19;10.20;;;4.75;;
78365;SDS011;67641;59.864;30.464;2024-03-08T06:12:46;10.18;;;4.10;;
78365;SDS011;67641;59.864;30.464;2024-03-08T06:15:12;12.88;;;4.22;;
78365;SDS011;67641;59.864;30.464;2024-03-08T06:17:42;6.97;;;4.00;;
78365;SDS011;67641;59.864;30.464;2024-03-08T06:20:08;6.82;;;3.45;;
78365;SDS011;67641;59.864;30.464;2024-03-08T06:22:39;6.15;;;3.30;;
78365;SDS011;67641;59.864;30.464;2024-03-08T06:25:10;14.40;;;4.00;;
78365;SDS011;67641;59.864;30.464;2024-03-08T06:27:41;8.85;;;3.78;;
78365;SDS011;67641;59.864;30.464;2024-03-08T06:30:12;10.52;;;3.72;;
78365;SDS011;67641;59.864;30.464;2024-03-08T06:32:41;15.57;;;4.43;;
78365;SDS011;67641;59.864;30.464;2024-03-08T06:35:08;7.47;;;3.67;;
78365;SDS011;67641;59.864;30.464;2024-03-08T06:37:36;10.77;;;3.50;;
78365;SDS011;67641;59.864;30.464;2024-03-08T06:40:03;7.60;;;3.58;;
78365;SDS011;67641;59.864;30.464;2024-03-08T06:42:30;8.85;;;3.08;;
78365;SDS011;67641;59.864;30.464;2024-03-08T06:45:01;10.30;;;3.35;;
78365;SDS011;67641;59.864;30.464;2024-03-08T06:47:31;7.10;;;3.55;;
78365;SDS011;67641;59.864;30.464;2024-03-08T06:52:26;10.00;;;3.25;;
78365;SDS011;67641;59.864;30.464;2024-03-08T06:54:53;10.35;;;4.05;;
78365;SDS011;67641;59.864;30.464;2024-03-08T06:57:21;6.40;;;2.92;;
78365;SDS011;67641;59.864;30.464;2024-03-08T06:59:50;9.05;;;4.22;;
78365;SDS011;67641;59.864;30.464;2024-03-08T07:02:18;8.90;;;3.97;;
78365;SDS011;67641;59.864;30.464;2024-03-08T07:04:45;5.70;;;3.22;;
78365;SDS011;67641;59.864;30.464;2024-03-08T07:07:11;8.50;;;3.35;;
78365;SDS011;67641;59.864;30.464;2024-03-08T07:09:38;9.52;;;3.53;;
78365;SDS011;67641;59.864;30.464;2024-03-08T07:12:05;8.32;;;3.92;;
78365;SDS011;67641;59.864;30.464;2024-03-08T07:14:32;6.95;;;2.78;;
78365;SDS011;67641;59.864;30.464;2024-03-08T07:16:58;13.48;;;3.67;;
78365;SDS011;67641;59.864;30.464;2024-03-08T07:19:26;7.38;;;3.20;;
78365;SDS011;67641;59.864;30.464;2024-03-08T07:21:53;10.10;;;3.20;;
78365;SDS011;67641;59.864;30.464;2024-03-08T07:24:21;8.55;;;2.80;;
78365;SDS011;67641;59.864;30.464;2024-03-08T07:27:21;7.80;;;2.70;;
78365;SDS011;67641;59.864;30.464;2024-03-08T07:29:48;10.70;;;3.00;;
78365;SDS011;67641;59.864;30.464;2024-03-08T07:32:15;8.57;;;3.10;;
78365;SDS011;67641;59.864;30.464;2024-03-08T07:34:47;8.10;;;2.40;;
78365;SDS011;67641;59.864;30.464;2024-03-08T07:37:17;8.05;;;2.15;;
78365;SDS011;67641;59.864;30.464;2024-03-08T07:39:45;7.30;;;2.13;;
78365;SDS011;67641;59.864;30.464;2024-03-08T07:42:11;7.63;;;2.42;;
78365;SDS011;67641;59.864;30.464;2024-03-08T07:44:38;8.27;;;2.45;;
78365;SDS011;67641;59.864;30.464;2024-03-08T07:47:05;9.00;;;2.05;;
78365;SDS011;67641;59.864;30.464;2024-03-08T07:49:35;5.78;;;1.80;;
78365;SDS011;67641;59.864;30.464;2024-03-08T07:52:03;5.82;;;1.60;;
78365;SDS011;67641;59.864;30.464;2024-03-08T07:54:30;6.47;;;2.20;;
78365;SDS011;67641;59.864;30.464;2024-03-08T07:56:57;6.20;;;1.60;;
78365;SDS011;67641;59.864;30.464;2024-03-08T07:59:23;5.65;;;2.15;;
78365;SDS011;67641;59.864;30.464;2024-03-08T08:01:50;6.88;;;1.73;;
78365;SDS011;67641;59.864;30.464;2024-03-08T08:04:17;7.70;;;1.80;;
78365;SDS011;67641;59.864;30.464;2024-03-08T08:06:45;5.03;;;1.52;;
78365;SDS011;67641;59.864;30.464;2024-03-08T08:09:11;8.23;;;2.00;;
78365;SDS011;67641;59.864;30.464;2024-03-08T08:11:41;5.95;;;1.75;;
78365;SDS011;67641;59.864;30.464;2024-03-08T08:14:12;7.28;;;1.85;;
78365;SDS011;67641;59.864;30.464;2024-03-08T08:16:40;6.18;;;1.92;;
78365;SDS011;67641;59.864;30.464;2024-03-08T08:19:08;4.80;;;1.80;;
78365;SDS011;67641;59.864;30.464;2024-03-08T08:21:35;6.28;;;1.80;;
78365;SDS011;67641;59.864;30.464;2024-03-08T08:24:05;6.57;;;2.25;;
78365;SDS011;67641;59.864;30.464;2024-03-08T08:26:32;7.05;;;1.75;;
78365;SDS011;67641;59.864;30.464;2024-03-08T08:28:59;6.78;;;1.90;;
78365;SDS011;67641;59.864;30.464;2024-03-08T08:31:26;5.68;;;1.90;;
78365;SDS011;67641;59.864;30.464;2024-03-08T08:33:53;5.97;;;1.83;;
78365;SDS011;67641;59.864;30.464;2024-03-08T08:36:24;7.45;;;2.10;;
78365;SDS011;67641;59.864;30.464;2024-03-08T08:38:51;9.10;;;1.85;;
78365;SDS011;67641;59.864;30.464;2024-03-08T08:41:22;6.30;;;2.05;;
78365;SDS011;67641;59.864;30.464;2024-03-08T08:43:48;6.70;;;2.00;;
78365;SDS011;67641;59.864;30.464;2024-03-08T08:46:17;6.93;;;1.90;;
78365;SDS011;67641;59.864;30.464;2024-03-08T08:48:44;5.30;;;2.50;;
78365;SDS011;67641;59.864;30.464;2024-03-08T08:51:13;5.43;;;1.60;;
78365;SDS011;67641;59.864;30.464;2024-03-08T08:53:41;8.00;;;2.00;;
78365;SDS011;67641;59.864;30.464;2024-03-08T08:56:13;4.05;;;1.33;;
78365;SDS011;67641;59.864;30.464;2024-03-08T08:58:39;4.85;;;1.75;;
78365;SDS011;67641;59.864;30.464;2024-03-08T09:01:09;6.18;;;1.60;;
78365;SDS011;67641;59.864;30.464;2024-03-08T09:03:36;6.82;;;1.92;;
78365;SDS011;67641;59.864;30.464;2024-03-08T09:06:03;7.45;;;1.95;;
78365;SDS011;67641;59.864;30.464;2024-03-08T09:08:31;7.03;;;1.70;;
78365;SDS011;67641;59.864;30.464;2024-03-08T09:10:57;6.78;;;1.70;;
78365;SDS011;67641;59.864;30.464;2024-03-08T09:13:25;8.15;;;1.92;;
78365;SDS011;67641;59.864;30.464;2024-03-08T09:15:52;8.50;;;2.67;;
78365;SDS011;67641;59.864;30.464;2024-03-08T09:18:19;4.18;;;1.67;;
78365;SDS011;67641;59.864;30.464;2024-03-08T09:20:46;4.75;;;1.27;;
78365;SDS011;67641;59.864;30.464;2024-03-08T09:23:13;8.45;;;1.88;;
78365;SDS011;67641;59.864;30.464;2024-03-08T09:25:41;9.27;;;1.92;;
78365;SDS011;67641;59.864;30.464;2024-03-08T09:28:07;7.35;;;1.75;;
78365;SDS011;67641;59.864;30.464;2024-03-08T09:30:35;7.60;;;1.83;;
78365;SDS011;67641;59.864;30.464;2024-03-08T09:33:04;8.40;;;1.50;;
78365;SDS011;67641;59.864;30.464;2024-03-08T09:35:32;4.30;;;1.52;;
78365;SDS011;67641;59.864;30.464;2024-03-08T09:37:59;7.65;;;1.50;;
78365;SDS011;67641;59.864;30.464;2024-03-08T09:40:26;4.65;;;1.58;;
78365;SDS011;67641;59.864;30.464;2024-03-08T09:42:53;4.88;;;1.60;;
78365;SDS011;67641;59.864;30.464;2024-03-08T09:45:23;9.50;;;1.60;;
78365;SDS011;67641;59.864;30.464;2024-03-08T09:47:51;4.55;;;1.30;;
78365;SDS011;67641;59.864;30.464;2024-03-08T09:50:19;5.03;;;1.60;;
78365;SDS011;67641;59.864;30.464;2024-03-08T09:52:49;4.78;;;1.30;;
78365;SDS011;67641;59.864;30.464;2024-03-08T09:55:16;7.70;;;1.23;;
78365;SDS011;67641;59.864;30.464;2024-03-08T09:57:48;7.35;;;1.58;;
78365;SDS011;67641;59.864;30.464;2024-03-08T10:00:35;4.63;;;1.65;;
78365;SDS011;67641;59.864;30.464;2024-03-08T10:03:02;6.18;;;1.55;;
78365;SDS011;67641;59.864;30.464;2024-03-08T10:05:32;4.78;;;1.40;;
78365;SDS011;67641;59.864;30.464;2024-03-08T10:07:59;9.25;;;1.50;;
78365;SDS011;67641;59.864;30.464;2024-03-08T10:10:26;8.65;;;1.60;;
78365;SDS011;67641;59.864;30.464;2024-03-08T10:12:53;4.80;;;1.20;;
78365;SDS011;67641;59.864;30.464;2024-03-08T10:15:20;7.13;;;1.02;;
78365;SDS011;67641;59.864;30.464;2024-03-08T10:17:47;6.93;;;1.10;;
78365;SDS011;67641;59.864;30.464;2024-03-08T10:20:15;3.08;;;1.00;;
78365;SDS011;67641;59.864;30.464;2024-03-08T10:22:43;4.97;;;1.58;;
78365;SDS011;67641;59.864;30.464;2024-03-08T10:25:10;5.65;;;1.40;;
78365;SDS011;67641;59.864;30.464;2024-03-08T10:27:38;8.02;;;1.70;;
78365;SDS011;67641;59.864;30.464;2024-03-08T10:30:17;6.38;;;1.30;;
78365;SDS011;67641;59.864;30.464;2024-03-08T10:32:47;5.72;;;1.45;;
78365;SDS011;67641;59.864;30.464;2024-03-08T10:35:15;6.55;;;1.50;;
78365;SDS011;67641;59.864;30.464;2024-03-08T10:37:46;4.50;;;1.38;;
78365;SDS011;67641;59.864;30.464;2024-03-08T10:40:16;7.72;;;1.63;;
78365;SDS011;67641;59.864;30.464;2024-03-08T10:42:51;6.38;;;1.48;;
78365;SDS011;67641;59.864;30.464;2024-03-08T10:47:49;6.93;;;1.52;;
78365;SDS011;67641;59.864;30.464;2024-03-08T10:50:21;3.60;;;1.33;;
78365;SDS011;67641;59.864;30.464;2024-03-08T10:52:51;6.15;;;1.60;;
78365;SDS011;67641;59.864;30.464;2024-03-08T10:55:18;5.22;;;1.58;;
78365;SDS011;67641;59.864;30.464;2024-03-08T10:57:48;9.00;;;1.70;;
78365;SDS011;67641;59.864;30.464;2024-03-08T11:00:15;6.68;;;1.50;;
78365;SDS011;67641;59.864;30.464;2024-03-08T11:02:45;5.28;;;1.70;;
78365;SDS011;67641;59.864;30.464;2024-03-08T11:05:31;4.15;;;1.50;;
78365;SDS011;67641;59.864;30.464;2024-03-08T11:08:01;6.45;;;1.65;;
78365;SDS011;67641;59.864;30.464;2024-03-08T11:10:30;6.78;;;1.48;;
78365;SDS011;67641;59.864;30.464;2024-03-08T11:12:57;7.18;;;1.50;;
78365;SDS011;67641;59.864;30.464;2024-03-08T11:15:24;4.80;;;1.42;;
78365;SDS011;67641;59.864;30.464;2024-03-08T11:17:51;3.45;;;1.30;;
78365;SDS011;67641;59.864;30.464;2024-03-08T11:20:19;6.45;;;2.00;;
78365;SDS011;67641;59.864;30.464;2024-03-08T11:22:51;5.03;;;1.50;;
78365;SDS011;67641;59.864;30.464;2024-03-08T11:25:36;4.68;;;1.40;;
78365;SDS011;67641;59.864;30.464;2024-03-08T11:28:15;6.55;;;1.50;;
78365;SDS011;67641;59.864;30.464;2024-03-08T11:33:31;9.02;;;1.90;;
78365;SDS011;67641;59.864;30.464;2024-03-08T11:38:40;4.55;;;1.25;;
78365;SDS011;67641;59.864;30.464;2024-03-08T11:41:08;9.30;;;1.63;;
78365;SDS011;67641;59.864;30.464;2024-03-08T11:43:34;7.18;;;1.98;;
78365;SDS011;67641;59.864;30.464;2024-03-08T11:46:10;5.78;;;1.73;;
78365;SDS011;67641;59.864;30.464;2024-03-08T11:48:42;3.92;;;1.70;;
78365;SDS011;67641;59.864;30.464;2024-03-08T11:51:14;7.60;;;2.20;;
78365;SDS011;67641;59.864;30.464;2024-03-08T11:53:45;4.50;;;1.40;;
78365;SDS011;67641;59.864;30.464;2024-03-08T11:56:16;4.28;;;1.50;;
78365;SDS011;67641;59.864;30.464;2024-03-08T11:58:51;5.38;;;1.40;;
78365;SDS011;67641;59.864;30.464;2024-03-08T12:01:20;5.47;;;1.52;;
78365;SDS011;67641;59.864;30.464;2024-03-08T12:03:52;5.85;;;1.10;;
78365;SDS011;67641;59.864;30.464;2024-03-08T12:06:26;6.03;;;1.70;;
78365;SDS011;67641;59.864;30.464;2024-03-08T12:08:53;5.20;;;1.52;;
78365;SDS011;67641;59.864;30.464;2024-03-08T12:11:20;5.85;;;1.45;;
78365;SDS011;67641;59.864;30.464;2024-03-08T12:13:49;6.25;;;1.38;;
78365;SDS011;67641;59.864;30.464;2024-03-08T12:16:20;7.20;;;1.77;;
78365;SDS011;67641;59.864;30.464;2024-03-08T12:18:50;4.60;;;1.60;;
78365;SDS011;67641;59.864;30.464;2024-03-08T12:21:21;3.78;;;1.27;;
78365;SDS011;67641;59.864;30.464;2024-03-08T12:24:09;7.68;;;1.83;;
78365;SDS011;67641;59.864;30.464;2024-03-08T12:26:36;5.00;;;1.40;;
78365;SDS011;67641;59.864;30.464;2024-03-08T12:29:20;5.30;;;1.92;;
78365;SDS011;67641;59.864;30.464;2024-03-08T12:31:51;6.65;;;1.83;;
78365;SDS011;67641;59.864;30.464;2024-03-08T12:34:24;5.88;;;1.90;;
78365;SDS011;67641;59.864;30.464;2024-03-08T12:36:51;6.22;;;1.75;;
78365;SDS011;67641;59.864;30.464;2024-03-08T12:39:20;5.03;;;1.17;;
78365;SDS011;67641;59.864;30.464;2024-03-08T12:41:53;8.65;;;1.92;;
78365;SDS011;67641;59.864;30.464;2024-03-08T12:44:20;5.78;;;1.58;;
78365;SDS011;67641;59.864;30.464;2024-03-08T12:46:47;5.05;;;1.50;;
78365;SDS011;67641;59.864;30.464;2024-03-08T12:49:14;5.28;;;1.52;;
78365;SDS011;67641;59.864;30.464;2024-03-08T12:51:44;5.30;;;1.55;;
78365;SDS011;67641;59.864;30.464;2024-03-08T12:54:11;5.78;;;1.63;;
78365;SDS011;67641;59.864;30.464;2024-03-08T12:56:38;4.50;;;1.20;;
78365;SDS011;67641;59.864;30.464;2024-03-08T12:59:06;5.55;;;1.33;;
78365;SDS011;67641;59.864;30.464;2024-03-08T13:01:34;7.72;;;1.50;;
78365;SDS011;67641;59.864;30.464;2024-03-08T13:06:32;4.60;;;1.30;;
78365;SDS011;67641;59.864;30.464;2024-03-08T13:08:59;3.38;;;1.23;;
78365;SDS011;67641;59.864;30.464;2024-03-08T13:11:31;6.80;;;1.75;;
78365;SDS011;67641;59.864;30.464;2024-03-08T13:14:03;5.18;;;1.50;;
78365;SDS011;67641;59.864;30.464;2024-03-08T13:16:33;4.18;;;1.30;;
78365;SDS011;67641;59.864;30.464;2024-03-08T13:19:00;6.40;;;1.27;;
78365;SDS011;67641;59.864;30.464;2024-03-08T13:21:27;6.07;;;1.50;;
78365;SDS011;67641;59.864;30.464;2024-03-08T13:23:56;5.05;;;1.23;;
78365;SDS011;67641;59.864;30.464;2024-03-08T13:26:24;5.80;;;1.38;;
78365;SDS011;67641;59.864;30.464;2024-03-08T13:28:56;6.32;;;1.40;;
78365;SDS011;67641;59.864;30.464;2024-03-08T13:31:24;4.97;;;1.27;;
78365;SDS011;67641;59.864;30.464;2024-03-08T13:33:50;5.93;;;1.70;;
78365;SDS011;67641;59.864;30.464;2024-03-08T13:36:23;9.25;;;1.70;;
78365;SDS011;67641;59.864;30.464;2024-03-08T13:38:55;5.85;;;1.50;;
78365;SDS011;67641;59.864;30.464;2024-03-08T13:41:25;5.57;;;1.25;;
78365;SDS011;67641;59.864;30.464;2024-03-08T13:43:51;4.25;;;1.30;;
78365;SDS011;67641;59.864;30.464;2024-03-08T13:46:19;8.32;;;1.40;;
78365;SDS011;67641;59.864;30.464;2024-03-08T13:48:45;5.03;;;1.33;;
78365;SDS011;67641;59.864;30.464;2024-03-08T13:51:13;4.22;;;1.40;;
78365;SDS011;67641;59.864;30.464;2024-03-08T13:53:41;6.32;;;1.90;;
78365;SDS011;67641;59.864;30.464;2024-03-08T13:56:08;5.53;;;1.48;;
78365;SDS011;67641;59.864;30.464;2024-03-08T13:58:36;7.10;;;1.80;;
78365;SDS011;67641;59.864;30.464;2024-03-08T14:01:03;5.35;;;1.45;;
78365;SDS011;67641;59.864;30.464;2024-03-08T14:03:37;5.50;;;1.73;;
78365;SDS011;67641;59.864;30.464;2024-03-08T14:06:07;4.43;;;1.98;;
78365;SDS011;67641;59.864;30.464;2024-03-08T14:08:35;9.70;;;1.42;;
78365;SDS011;67641;59.864;30.464;2024-03-08T14:11:04;4.47;;;1.73;;
78365;SDS011;67641;59.864;30.464;2024-03-08T14:13:40;4.75;;;1.50;;
78365;SDS011;67641;59.864;30.464;2024-03-08T14:16:13;4.05;;;1.38;;
78365;SDS011;67641;59.864;30.464;2024-03-08T14:18:41;9.32;;;1.98;;
78365;SDS011;67641;59.864;30.464;2024-03-08T14:21:08;6.50;;;1.58;;
78365;SDS011;67641;59.864;30.464;2024-03-08T14:23:34;6.80;;;1.73;;
78365;SDS011;67641;59.864;30.464;2024-03-08T14:26:05;5.15;;;1.75;;
78365;SDS011;67641;59.864;30.464;2024-03-08T14:28:33;6.22;;;1.40;;
78365;SDS011;67641;59.864;30.464;2024-03-08T14:31:00;6.88;;;1.80;;
78365;SDS011;67641;59.864;30.464;2024-03-08T14:33:29;3.80;;;1.40;;
78365;SDS011;67641;59.864;30.464;2024-03-08T14:35:56;3.80;;;1.60;;
78365;SDS011;67641;59.864;30.464;2024-03-08T14:38:22;5.38;;;1.67;;
78365;SDS011;67641;59.864;30.464;2024-03-08T14:40:53;4.43;;;1.65;;
78365;SDS011;67641;59.864;30.464;2024-03-08T14:43:21;5.03;;;1.42;;
78365;SDS011;67641;59.864;30.464;2024-03-08T14:45:48;5.82;;;1.65;;
78365;SDS011;67641;59.864;30.464;2024-03-08T14:48:15;3.55;;;1.45;;
78365;SDS011;67641;59.864;30.464;2024-03-08T14:50:42;5.13;;;1.60;;
78365;SDS011;67641;59.864;30.464;2024-03-08T14:53:10;5.80;;;1.70;;